Time;durP1;ratioP1;P1;durP2;ratioP2;P2;SDS_P1;SDS_P2;PMS_P1;PMS_P2;Temp;Humidity;BMP_temperature;BMP_pressure;BME280_temperature;BME280_humidity;BME280_pressure;Samples;Min_cycle;Max_cycle;Signal;HPM_P1;HPM_P2
2022/08/14 00:02:02;;;;;;;6.57;5.97;;;;;;;;;;5051288;28;20505;-51
2022/08/14 00:04:29;;;;;;;6.97;6.37;;;;;;;;;;5051148;28;20467;-51
2022/08/14 00:06:55;;;;;;;7.37;5.90;;;;;;;;;;5052123;28;20421;-51
2022/08/14 00:09:21;;;;;;;6.10;5.50;;;;;;;;;;5054592;28;20404;-51
2022/08/14 00:11:47;;;;;;;6.80;6.30;;;;;;;;;;5054016;28;20401;-51
2022/08/14 00:14:13;;;;;;;6.57;5.97;;;;;;;;;;5054712;28;20463;-51
2022/08/14 00:16:38;;;;;;;6.13;5.63;;;;;;;;;;5054365;28;20555;-51
2022/08/14 00:19:04;;;;;;;7.40;6.30;;;;;;;;;;5054385;28;20907;-51
2022/08/14 00:21:31;;;;;;;11.60;6.90;;;;;;;;;;5053863;28;20401;-52
2022/08/14 00:23:57;;;;;;;6.20;5.80;;;;;;;;;;5054354;28;20396;-51
2022/08/14 00:26:23;;;;;;;7.90;5.90;;;;;;;;;;5054248;28;20853;-51
2022/08/14 00:28:50;;;;;;;6.10;5.60;;;;;;;;;;5054045;28;20393;-51
2022/08/14 00:31:16;;;;;;;6.30;5.70;;;;;;;;;;5053585;28;20484;-51
2022/08/14 00:33:42;;;;;;;6.47;5.73;;;;;;;;;;5054156;28;20952;-51
2022/08/14 00:36:08;;;;;;;6.53;6.03;;;;;;;;;;5054024;28;20405;-51
2022/08/14 00:38:34;;;;;;;6.97;6.37;;;;;;;;;;5054228;28;20748;-51
2022/08/14 00:41:01;;;;;;;7.50;6.80;;;;;;;;;;5053352;28;20893;-51
2022/08/14 00:43:28;;;;;;;7.17;6.57;;;;;;;;;;5055015;28;20803;-51
2022/08/14 00:45:54;;;;;;;7.03;6.53;;;;;;;;;;5073928;28;20433;-51
2022/08/14 00:48:20;;;;;;;6.57;6.00;;;;;;;;;;5073903;28;20990;-51
2022/08/14 00:50:46;;;;;;;7.23;6.60;;;;;;;;;;5073211;28;20402;-51
2022/08/14 00:53:15;;;;;;;6.60;6.10;;;;;;;;;;5073842;28;20411;-50
2022/08/14 00:55:42;;;;;;;7.80;7.10;;;;;;;;;;5073812;28;20415;-51
2022/08/14 01:00:53;;;;;;;12.23;7.03;;;;;;;;;;5072493;28;20399;-51
2022/08/14 01:03:19;;;;;;;6.47;5.97;;;;;;;;;;5073319;28;20434;-51
2022/08/14 01:05:48;;;;;;;7.17;6.57;;;;;;;;;;5073032;28;20446;-51
2022/08/14 01:08:15;;;;;;;6.63;6.03;;;;;;;;;;5073858;28;20464;-51
2022/08/14 01:10:49;;;;;;;6.83;6.07;;;;;;;;;;5072939;28;20811;-51
2022/08/14 01:13:16;;;;;;;7.13;6.43;;;;;;;;;;5073514;28;20392;-51
2022/08/14 01:15:47;;;;;;;7.23;6.60;;;;;;;;;;5056868;28;20948;-51
2022/08/14 01:21:13;;;;;;;7.87;7.10;;;;;;;;;;5072726;28;20423;-51
2022/08/14 01:23:40;;;;;;;8.43;7.70;;;;;;;;;;5073248;28;20423;-51
2022/08/14 01:26:07;;;;;;;7.90;7.20;;;;;;;;;;5073368;28;20442;-51
2022/08/14 01:28:36;;;;;;;7.33;6.73;;;;;;;;;;5073109;28;20399;-51
2022/08/14 01:31:04;;;;;;;8.20;7.40;;;;;;;;;;5072362;28;20802;-51
2022/08/14 01:33:30;;;;;;;9.13;8.43;;;;;;;;;;5072902;28;20776;-51
2022/08/14 01:35:59;;;;;;;7.83;7.13;;;;;;;;;;5072632;28;20403;-51
2022/08/14 01:38:33;;;;;;;8.67;7.80;;;;;;;;;;5072833;28;20430;-51
2022/08/14 01:41:03;;;;;;;9.13;7.20;;;;;;;;;;5072290;28;20767;-51
2022/08/14 01:43:37;;;;;;;8.20;6.93;;;;;;;;;;5072817;28;20402;-51
2022/08/14 01:46:10;;;;;;;9.63;7.77;;;;;;;;;;5057038;28;20801;-51
2022/08/14 01:48:36;;;;;;;8.50;7.70;;;;;;;;;;5052907;28;20760;-51
2022/08/14 01:51:02;;;;;;;7.80;6.90;;;;;;;;;;5052312;28;20486;-51
2022/08/14 01:53:30;;;;;;;7.83;7.23;;;;;;;;;;5052713;28;20976;-51
2022/08/14 01:55:58;;;;;;;8.20;7.60;;;;;;;;;;5052636;28;20410;-51
2022/08/14 01:58:28;;;;;;;7.93;7.13;;;;;;;;;;5052384;28;20444;-51
2022/08/14 02:00:55;;;;;;;10.13;8.57;;;;;;;;;;5052347;28;20399;-51
2022/08/14 02:03:22;;;;;;;9.17;8.37;;;;;;;;;;5052455;28;20411;-50
2022/08/14 02:05:48;;;;;;;8.93;8.17;;;;;;;;;;5052425;28;20491;-50
2022/08/14 02:08:14;;;;;;;9.47;8.53;;;;;;;;;;5052344;28;20428;-50
2022/08/14 02:10:41;;;;;;;9.23;7.17;;;;;;;;;;5051668;28;20506;-51
2022/08/14 02:13:09;;;;;;;7.80;7.20;;;;;;;;;;5052209;28;20451;-50
2022/08/14 02:15:39;;;;;;;8.73;7.93;;;;;;;;;;5069205;28;20462;-51
2022/08/14 02:18:06;;;;;;;8.57;7.77;;;;;;;;;;5072115;28;20432;-51
2022/08/14 02:20:32;;;;;;;8.90;8.20;;;;;;;;;;5070389;28;20412;-51
2022/08/14 02:23:02;;;;;;;8.10;7.40;;;;;;;;;;5072136;28;20405;-51
2022/08/14 02:25:29;;;;;;;8.10;7.50;;;;;;;;;;5070541;28;20895;-51
2022/08/14 02:27:56;;;;;;;8.73;8.03;;;;;;;;;;5072018;28;20819;-52
2022/08/14 02:30:23;;;;;;;8.60;7.90;;;;;;;;;;5071045;28;20407;-51
2022/08/14 02:32:50;;;;;;;7.10;6.60;;;;;;;;;;5072042;28;20411;-51
2022/08/14 02:35:17;;;;;;;9.57;8.77;;;;;;;;;;5072082;28;20451;-51
2022/08/14 02:37:43;;;;;;;8.73;7.93;;;;;;;;;;5057071;28;20486;-51
2022/08/14 02:40:10;;;;;;;9.33;8.53;;;;;;;;;;5051178;28;20413;-51
2022/08/14 02:42:36;;;;;;;9.53;8.63;;;;;;;;;;5051951;28;20394;-51
2022/08/14 02:45:02;;;;;;;9.53;8.53;;;;;;;;;;5051989;28;20409;-51
2022/08/14 02:47:28;;;;;;;8.80;8.00;;;;;;;;;;5051853;28;20786;-51
2022/08/14 02:49:55;;;;;;;8.40;7.70;;;;;;;;;;5051188;28;20405;-51
2022/08/14 02:52:21;;;;;;;9.50;8.40;;;;;;;;;;5051857;28;20413;-51
2022/08/14 02:54:47;;;;;;;9.50;8.73;;;;;;;;;;5051690;28;20967;-51
2022/08/14 02:57:14;;;;;;;9.10;8.30;;;;;;;;;;5051556;28;20939;-51
2022/08/14 02:59:40;;;;;;;10.13;9.23;;;;;;;;;;5051257;28;20419;-51
2022/08/14 03:02:07;;;;;;;8.63;7.80;;;;;;;;;;5051470;28;20408;-51
2022/08/14 03:04:33;;;;;;;10.13;9.00;;;;;;;;;;5051730;28;20441;-51
2022/08/14 03:06:59;;;;;;;8.57;7.87;;;;;;;;;;5055738;28;20536;-51
2022/08/14 03:09:26;;;;;;;10.07;9.10;;;;;;;;;;5071563;28;20488;-51
2022/08/14 03:11:52;;;;;;;8.10;7.40;;;;;;;;;;5054696;28;20426;-51
2022/08/14 03:14:21;;;;;;;8.53;7.47;;;;;;;;;;5051534;28;20486;-51
2022/08/14 03:16:49;;;;;;;9.40;8.57;;;;;;;;;;5051540;28;20430;-51
2022/08/14 03:19:15;;;;;;;9.07;8.27;;;;;;;;;;5051541;28;20392;-51
2022/08/14 03:21:41;;;;;;;9.33;8.47;;;;;;;;;;5050632;28;20401;-51
2022/08/14 03:26:38;;;;;;;9.30;8.40;;;;;;;;;;5051591;28;20512;-51
2022/08/14 03:29:04;;;;;;;12.03;8.30;;;;;;;;;;5051398;28;20421;-51
2022/08/14 03:31:30;;;;;;;9.77;8.77;;;;;;;;;;5050758;28;20413;-51
2022/08/14 03:33:57;;;;;;;9.37;8.67;;;;;;;;;;5051372;28;20442;-51
2022/08/14 03:36:23;;;;;;;10.07;8.70;;;;;;;;;;5051323;28;20427;-51
2022/08/14 03:38:51;;;;;;;9.80;8.60;;;;;;;;;;5051345;28;20396;-50
2022/08/14 03:41:19;;;;;;;9.27;8.47;;;;;;;;;;5053485;28;20455;-51
2022/08/14 03:43:46;;;;;;;9.40;8.60;;;;;;;;;;5060539;28;20434;-51
2022/08/14 03:46:13;;;;;;;9.17;8.27;;;;;;;;;;5075157;28;20934;-51
2022/08/14 03:48:39;;;;;;;9.27;8.37;;;;;;;;;;5074974;28;20506;-51
2022/08/14 03:51:09;;;;;;;9.67;8.77;;;;;;;;;;5074576;28;20404;-51
2022/08/14 03:53:39;;;;;;;11.23;10.20;;;;;;;;;;5074929;28;20401;-51
2022/08/14 03:56:06;;;;;;;10.60;9.50;;;;;;;;;;5074803;28;21036;-51
2022/08/14 03:58:32;;;;;;;10.97;9.87;;;;;;;;;;5074837;28;20812;-50
2022/08/14 04:00:59;;;;;;;10.60;9.50;;;;;;;;;;5074256;28;20393;-51
2022/08/14 04:03:25;;;;;;;10.40;8.90;;;;;;;;;;5074752;28;20380;-52
2022/08/14 04:05:52;;;;;;;11.13;8.53;;;;;;;;;;5074779;28;20961;-51
2022/08/14 04:08:19;;;;;;;10.00;9.00;;;;;;;;;;5074640;28;20413;-51
2022/08/14 04:10:45;;;;;;;10.60;9.67;;;;;;;;;;5073969;28;20827;-51
2022/08/14 04:13:11;;;;;;;10.13;9.23;;;;;;;;;;5074642;28;20399;-51
2022/08/14 04:15:37;;;;;;;12.00;8.97;;;;;;;;;;5070253;28;20463;-50
2022/08/14 04:18:07;;;;;;;8.73;8.03;;;;;;;;;;5074465;28;20842;-51
2022/08/14 04:20:34;;;;;;;9.83;8.93;;;;;;;;;;5073794;28;20410;-50
2022/08/14 04:23:00;;;;;;;10.43;9.33;;;;;;;;;;5074487;28;20412;-51
2022/08/14 04:25:26;;;;;;;9.80;8.90;;;;;;;;;;5074343;28;20462;-50
2022/08/14 04:27:53;;;;;;;11.93;10.83;;;;;;;;;;5074380;28;20427;-51
2022/08/14 04:30:19;;;;;;;10.60;9.50;;;;;;;;;;5073594;28;20470;-51
2022/08/14 04:32:45;;;;;;;12.30;8.83;;;;;;;;;;5074276;28;20902;-51
2022/08/14 04:35:11;;;;;;;12.40;10.23;;;;;;;;;;5074194;28;20508;-51
2022/08/14 04:45:51;;;;;;;10.33;9.33;;;;;;;;;;5062693;28;20505;-51
2022/08/14 04:48:19;;;;;;;10.27;9.37;;;;;;;;;;5053962;28;20422;-51
2022/08/14 04:50:45;;;;;;;10.73;9.70;;;;;;;;;;5053244;28;20773;-51
2022/08/14 04:53:13;;;;;;;10.40;9.50;;;;;;;;;;5053644;28;20489;-51
2022/08/14 04:55:46;;;;;;;9.50;8.60;;;;;;;;;;5053709;28;20457;-51
2022/08/14 04:58:12;;;;;;;11.53;9.30;;;;;;;;;;5053674;28;20459;-51
2022/08/14 05:00:38;;;;;;;10.10;9.20;;;;;;;;;;5053076;28;20403;-50
2022/08/14 05:03:05;;;;;;;10.43;9.33;;;;;;;;;;5053775;28;20390;-51
2022/08/14 05:05:31;;;;;;;10.37;9.33;;;;;;;;;;5053791;28;20500;-51
2022/08/14 05:08:06;;;;;;;11.90;9.70;;;;;;;;;;5053612;28;20428;-51
2022/08/14 05:10:32;;;;;;;11.53;9.03;;;;;;;;;;5052853;28;20462;-51
2022/08/14 05:12:58;;;;;;;10.33;9.33;;;;;;;;;;5053662;28;20496;-51
2022/08/14 05:15:28;;;;;;;11.30;10.10;;;;;;;;;;5071003;28;20460;-51
2022/08/14 05:17:54;;;;;;;10.37;9.37;;;;;;;;;;5073409;28;20503;-51
2022/08/14 05:20:20;;;;;;;11.43;9.47;;;;;;;;;;5072698;28;20408;-51
2022/08/14 05:22:46;;;;;;;11.00;9.93;;;;;;;;;;5073331;28;20501;-51
2022/08/14 05:25:12;;;;;;;10.13;9.33;;;;;;;;;;5073261;28;20548;-50
2022/08/14 05:27:38;;;;;;;10.27;9.27;;;;;;;;;;5073110;28;20906;-51
2022/08/14 05:30:05;;;;;;;11.03;9.93;;;;;;;;;;5072523;28;20401;-51
2022/08/14 05:32:31;;;;;;;11.50;10.30;;;;;;;;;;5073205;28;20411;-51
2022/08/14 05:34:58;;;;;;;10.07;9.07;;;;;;;;;;5073024;28;20447;-50
2022/08/14 05:37:25;;;;;;;10.60;9.47;;;;;;;;;;5072872;28;20424;-51
2022/08/14 05:39:51;;;;;;;10.10;9.10;;;;;;;;;;5072237;28;20890;-51
2022/08/14 05:42:17;;;;;;;11.17;10.07;;;;;;;;;;5072890;28;20393;-51
2022/08/14 05:44:43;;;;;;;12.50;10.10;;;;;;;;;;5062087;28;20505;-51
2022/08/14 05:47:09;;;;;;;10.57;9.70;;;;;;;;;;5066808;28;20540;-51
2022/08/14 05:49:35;;;;;;;11.30;10.30;;;;;;;;;;5072473;28;20778;-51
2022/08/14 05:52:01;;;;;;;11.40;9.40;;;;;;;;;;5072199;28;20405;-51
2022/08/14 05:54:27;;;;;;;12.20;9.53;;;;;;;;;;5072630;28;20454;-51
2022/08/14 05:56:53;;;;;;;14.13;9.97;;;;;;;;;;5072653;28;20936;-51
2022/08/14 05:59:19;;;;;;;11.53;10.37;;;;;;;;;;5072638;28;20437;-51
2022/08/14 06:01:45;;;;;;;11.10;10.00;;;;;;;;;;5071973;28;20399;-51
2022/08/14 06:04:11;;;;;;;11.37;10.33;;;;;;;;;;5071834;28;20446;-51
2022/08/14 06:06:37;;;;;;;11.47;10.30;;;;;;;;;;5072559;28;20431;-51
2022/08/14 06:09:03;;;;;;;11.17;10.00;;;;;;;;;;5072333;28;20414;-51
2022/08/14 06:11:29;;;;;;;11.90;10.70;;;;;;;;;;5071792;28;20403;-51
2022/08/14 06:13:55;;;;;;;10.93;10.00;;;;;;;;;;5072335;28;20460;-51
2022/08/14 06:16:21;;;;;;;11.73;10.57;;;;;;;;;;5052431;28;20810;-51
2022/08/14 06:18:48;;;;;;;10.90;9.80;;;;;;;;;;5052177;28;20411;-51
2022/08/14 06:21:14;;;;;;;12.83;11.60;;;;;;;;;;5051597;28;20471;-51
2022/08/14 06:23:40;;;;;;;10.83;9.80;;;;;;;;;;5052231;28;20421;-51
2022/08/14 06:26:06;;;;;;;10.93;9.93;;;;;;;;;;5052081;28;20770;-51
2022/08/14 06:28:32;;;;;;;14.20;10.37;;;;;;;;;;5052181;28;20406;-51
2022/08/14 06:30:58;;;;;;;11.50;10.50;;;;;;;;;;5051454;28;20405;-51
2022/08/14 06:33:24;;;;;;;11.83;10.73;;;;;;;;;;5052067;28;20392;-51
2022/08/14 06:35:50;;;;;;;11.40;10.33;;;;;;;;;;5051995;28;20467;-52
2022/08/14 06:38:18;;;;;;;12.80;11.60;;;;;;;;;;5051889;28;20420;-52
2022/08/14 06:40:45;;;;;;;10.63;9.60;;;;;;;;;;5051340;28;20429;-51
2022/08/14 06:43:11;;;;;;;11.53;10.43;;;;;;;;;;5051942;28;20471;-51
2022/08/14 06:45:39;;;;;;;11.40;10.40;;;;;;;;;;5052107;28;20494;-51
2022/08/14 06:48:13;;;;;;;10.07;9.17;;;;;;;;;;5051743;28;20934;-51
2022/08/14 06:50:39;;;;;;;11.07;10.07;;;;;;;;;;5051188;28;20405;-51
2022/08/14 06:53:06;;;;;;;10.50;9.50;;;;;;;;;;5051837;28;20412;-51
2022/08/14 06:55:32;;;;;;;12.27;11.00;;;;;;;;;;5051695;28;20441;-52
2022/08/14 06:57:57;;;;;;;10.27;9.27;;;;;;;;;;5051669;28;20460;-50
2022/08/14 07:00:25;;;;;;;13.40;10.10;;;;;;;;;;5051104;28;20485;-51
2022/08/14 07:05:46;;;;;;;9.63;8.73;;;;;;;;;;5052047;28;20392;-50
2022/08/14 07:08:13;;;;;;;13.20;10.43;;;;;;;;;;5051558;28;20935;-52
2022/08/14 07:10:41;;;;;;;11.27;10.20;;;;;;;;;;5050965;28;20401;-51
2022/08/14 07:13:07;;;;;;;10.87;9.50;;;;;;;;;;5051615;28;20776;-51
2022/08/14 07:15:33;;;;;;;9.87;8.97;;;;;;;;;;5064166;28;20456;-51
2022/08/14 07:17:59;;;;;;;10.60;9.50;;;;;;;;;;5075699;28;20419;-51
2022/08/14 07:20:26;;;;;;;10.00;9.10;;;;;;;;;;5074956;28;20389;-51
2022/08/14 07:22:57;;;;;;;9.33;8.43;;;;;;;;;;5075655;28;20401;-51
2022/08/14 07:25:23;;;;;;;9.73;8.63;;;;;;;;;;5075623;28;20399;-51
2022/08/14 07:27:49;;;;;;;9.30;8.60;;;;;;;;;;5075473;28;20822;-51
2022/08/14 07:30:15;;;;;;;8.93;8.23;;;;;;;;;;5074836;28;20427;-51
2022/08/14 07:32:41;;;;;;;10.10;9.10;;;;;;;;;;5075709;28;20856;-51
2022/08/14 07:35:07;;;;;;;9.57;8.77;;;;;;;;;;5075375;28;20544;-51
2022/08/14 07:37:33;;;;;;;9.53;8.63;;;;;;;;;;5075216;28;20422;-51
2022/08/14 07:40:00;;;;;;;9.67;8.87;;;;;;;;;;5074585;28;20484;-51
2022/08/14 07:42:27;;;;;;;9.80;8.90;;;;;;;;;;5075205;28;20939;-51
2022/08/14 07:44:53;;;;;;;15.27;9.43;;;;;;;;;;5068478;28;20439;-51
2022/08/14 07:47:19;;;;;;;8.97;8.17;;;;;;;;;;5065146;28;20455;-51
2022/08/14 07:49:58;;;;;;;9.53;8.73;;;;;;;;;;5074487;28;20404;-51
2022/08/14 07:52:24;;;;;;;8.90;8.00;;;;;;;;;;5074990;28;20407;-51
2022/08/14 07:54:50;;;;;;;8.30;7.70;;;;;;;;;;5074864;28;20452;-51
2022/08/14 07:57:17;;;;;;;8.87;7.97;;;;;;;;;;5074673;28;20428;-52
2022/08/14 07:59:43;;;;;;;8.00;7.40;;;;;;;;;;5074464;28;20416;-51
2022/08/14 08:02:14;;;;;;;7.00;6.37;;;;;;;;;;5075274;28;20479;-51
2022/08/14 08:04:43;;;;;;;7.53;6.83;;;;;;;;;;5074802;28;20866;-51
2022/08/14 08:07:09;;;;;;;7.43;6.87;;;;;;;;;;5074493;28;20420;-52
2022/08/14 08:09:36;;;;;;;7.80;7.20;;;;;;;;;;5074098;28;20416;-53
2022/08/14 08:12:04;;;;;;;7.13;6.53;;;;;;;;;;5072159;28;20458;-51
2022/08/14 08:14:31;;;;;;;7.40;6.80;;;;;;;;;;5073005;28;20486;-51
2022/08/14 08:16:59;;;;;;;7.40;6.87;;;;;;;;;;5062761;28;20465;-52
2022/08/14 08:19:25;;;;;;;7.53;6.93;;;;;;;;;;5057973;28;20405;-50
2022/08/14 08:21:52;;;;;;;6.20;5.70;;;;;;;;;;5053265;28;20496;-51
2022/08/14 08:24:18;;;;;;;7.43;6.93;;;;;;;;;;5060349;28;20839;-50
2022/08/14 08:26:44;;;;;;;7.00;6.50;;;;;;;;;;5074284;28;20919;-51
2022/08/14 08:29:18;;;;;;;7.40;6.70;;;;;;;;;;5073661;28;20397;-52
2022/08/14 08:31:51;;;;;;;7.10;6.60;;;;;;;;;;5073752;28;20404;-52
2022/08/14 08:34:17;;;;;;;7.00;6.40;;;;;;;;;;5074201;28;20475;-52
2022/08/14 08:36:43;;;;;;;6.57;6.07;;;;;;;;;;5074025;28;20439;-51
2022/08/14 08:39:09;;;;;;;6.80;6.23;;;;;;;;;;5067834;28;20429;-51
2022/08/14 08:41:40;;;;;;;7.60;5.60;;;;;;;;;;5053461;28;20480;-51
2022/08/14 08:44:06;;;;;;;5.67;5.23;;;;;;;;;;5053995;28;20429;-52
2022/08/14 08:46:32;;;;;;;6.77;6.30;;;;;;;;;;5053800;28;20425;-50
2022/08/14 08:48:58;;;;;;;7.00;6.50;;;;;;;;;;5053942;28;20489;-50
2022/08/14 08:51:31;;;;;;;6.73;6.20;;;;;;;;;;5061298;28;20466;-51
2022/08/14 08:53:57;;;;;;;6.97;6.40;;;;;;;;;;5073656;28;20451;-53
2022/08/14 08:56:33;;;;;;;6.40;5.90;;;;;;;;;;5073663;28;20421;-50
2022/08/14 08:59:00;;;;;;;7.30;6.73;;;;;;;;;;5071657;28;20177;-50
2022/08/14 09:01:29;;;;;;;6.53;6.03;;;;;;;;;;5066596;28;20606;-51
2022/08/14 09:04:05;;;;;;;6.57;6.07;;;;;;;;;;5053361;28;20417;-50
2022/08/14 09:06:31;;;;;;;6.27;5.80;;;;;;;;;;5053613;28;20429;-51
2022/08/14 09:08:57;;;;;;;6.80;6.30;;;;;;;;;;5053790;28;20939;-51
2022/08/14 09:11:23;;;;;;;6.83;6.43;;;;;;;;;;5052730;28;20484;-50
2022/08/14 09:13:50;;;;;;;6.80;6.17;;;;;;;;;;5053328;28;20397;-50
2022/08/14 09:16:19;;;;;;;6.50;6.00;;;;;;;;;;5052992;28;20394;-51
2022/08/14 09:18:46;;;;;;;6.50;5.67;;;;;;;;;;5053149;28;20401;-50
2022/08/14 09:21:12;;;;;;;6.90;6.40;;;;;;;;;;5052557;28;20394;-51
2022/08/14 09:23:39;;;;;;;6.33;5.90;;;;;;;;;;5053182;28;20412;-51
2022/08/14 09:26:05;;;;;;;5.83;5.43;;;;;;;;;;5053759;28;20425;-51
2022/08/14 09:28:31;;;;;;;6.10;5.70;;;;;;;;;;5052970;28;20405;-50
2022/08/14 09:30:58;;;;;;;6.33;5.27;;;;;;;;;;5052088;28;20402;-51
2022/08/14 09:33:36;;;;;;;5.43;5.03;;;;;;;;;;5052887;28;20405;-50
2022/08/14 09:36:11;;;;;;;5.90;5.47;;;;;;;;;;5052931;28;20804;-50
2022/08/14 09:38:44;;;;;;;5.93;5.53;;;;;;;;;;5052465;28;20480;-50
2022/08/14 09:41:18;;;;;;;4.97;4.67;;;;;;;;;;5052105;28;20401;-50
2022/08/14 09:43:59;;;;;;;5.40;5.00;;;;;;;;;;5053082;28;20393;-50
2022/08/14 09:46:26;;;;;;;5.70;5.30;;;;;;;;;;5052535;28;20413;-50
2022/08/14 09:49:03;;;;;;;5.93;5.53;;;;;;;;;;5052595;28;20390;-51
2022/08/14 09:51:29;;;;;;;4.93;4.63;;;;;;;;;;5051946;28;20524;-51
2022/08/14 09:54:15;;;;;;;5.23;4.93;;;;;;;;;;5052371;28;20394;-50
2022/08/14 09:56:48;;;;;;;5.37;4.97;;;;;;;;;;5066351;28;20486;-50
2022/08/14 09:59:18;;;;;;;5.60;5.03;;;;;;;;;;5072107;28;20598;-50
2022/08/14 10:01:55;;;;;;;5.70;5.30;;;;;;;;;;5068397;28;20577;-50
2022/08/14 10:04:23;;;;;;;6.37;5.10;;;;;;;;;;5068690;28;20443;-52
2022/08/14 10:06:50;;;;;;;5.30;4.90;;;;;;;;;;5069033;28;20405;-50
2022/08/14 10:09:16;;;;;;;4.83;4.53;;;;;;;;;;5069062;28;20417;-51
2022/08/14 10:11:52;;;;;;;5.57;5.17;;;;;;;;;;5058575;28;20767;-51
2022/08/14 10:14:20;;;;;;;5.30;5.00;;;;;;;;;;5053969;28;20417;-52
2022/08/14 10:16:47;;;;;;;5.10;4.80;;;;;;;;;;5047277;28;20422;-52
2022/08/14 10:19:15;;;;;;;4.73;4.43;;;;;;;;;;5057995;28;20423;-52
2022/08/14 10:21:43;;;;;;;5.57;5.27;;;;;;;;;;5051547;28;20522;-51
2022/08/14 10:24:09;;;;;;;6.03;5.43;;;;;;;;;;5048847;28;20397;-52
2022/08/14 10:26:36;;;;;;;5.27;4.97;;;;;;;;;;5047451;28;20498;-51
2022/08/14 10:29:08;;;;;;;5.10;4.80;;;;;;;;;;5062368;28;20932;-51
2022/08/14 10:31:34;;;;;;;4.37;4.07;;;;;;;;;;5071328;28;20412;-52
2022/08/14 10:34:06;;;;;;;6.33;5.90;;;;;;;;;;5064969;28;20809;-51
2022/08/14 10:36:35;;;;;;;5.43;4.90;;;;;;;;;;5067191;28;20431;-51
2022/08/14 10:39:03;;;;;;;4.57;4.30;;;;;;;;;;5067978;28;20411;-52
2022/08/14 10:41:40;;;;;;;5.07;4.77;;;;;;;;;;5067100;28;20452;-51
2022/08/14 10:44:15;;;;;;;4.47;4.23;;;;;;;;;;5068126;28;20474;-51
2022/08/14 10:46:44;;;;;;;5.03;4.73;;;;;;;;;;5068498;28;20412;-52
2022/08/14 10:49:20;;;;;;;5.47;4.83;;;;;;;;;;5068099;28;20396;-52
2022/08/14 10:52:06;;;;;;;5.40;5.00;;;;;;;;;;5067436;28;20422;-52
2022/08/14 10:54:33;;;;;;;5.10;4.80;;;;;;;;;;5067997;28;20502;-52
2022/08/14 10:57:12;;;;;;;5.40;5.00;;;;;;;;;;5065487;28;20444;-51
2022/08/14 10:59:44;;;;;;;4.83;4.53;;;;;;;;;;5066632;28;20428;-52
2022/08/14 11:02:19;;;;;;;5.27;4.87;;;;;;;;;;5067723;28;20397;-52
2022/08/14 11:04:46;;;;;;;4.80;4.50;;;;;;;;;;5067613;28;20475;-52
2022/08/14 11:07:15;;;;;;;5.63;5.13;;;;;;;;;;5067596;28;20404;-53
2022/08/14 11:09:52;;;;;;;5.37;5.00;;;;;;;;;;5067404;28;20463;-52
2022/08/14 11:12:18;;;;;;;4.93;4.63;;;;;;;;;;5059433;28;20396;-52
2022/08/14 11:14:55;;;;;;;5.13;4.83;;;;;;;;;;5054397;28;20393;-52
2022/08/14 11:17:20;;;;;;;5.10;4.80;;;;;;;;;;5054267;28;20189;-52
2022/08/14 11:19:47;;;;;;;4.73;4.43;;;;;;;;;;5053577;28;20448;-52
2022/08/14 11:22:15;;;;;;;4.90;4.57;;;;;;;;;;5054462;28;20182;-51
2022/08/14 11:24:42;;;;;;;4.80;4.50;;;;;;;;;;5053026;28;20409;-52
2022/08/14 11:27:10;;;;;;;5.03;4.63;;;;;;;;;;5047765;28;20525;-53
2022/08/14 11:29:37;;;;;;;4.83;4.53;;;;;;;;;;5033905;28;20400;-52
2022/08/14 11:32:05;;;;;;;5.13;4.73;;;;;;;;;;5033570;28;20398;-52
2022/08/14 11:34:32;;;;;;;4.73;4.43;;;;;;;;;;5034099;28;20402;-51
2022/08/14 11:37:07;;;;;;;5.90;4.90;;;;;;;;;;5034056;28;20814;-52
2022/08/14 11:39:33;;;;;;;5.40;4.90;;;;;;;;;;5034187;28;20405;-52
2022/08/14 11:41:59;;;;;;;5.00;4.67;;;;;;;;;;5033643;28;20407;-52
2022/08/14 11:44:25;;;;;;;10.20;4.70;;;;;;;;;;5034051;28;20221;-52
2022/08/14 11:46:51;;;;;;;5.33;5.03;;;;;;;;;;5033862;28;21275;-52
2022/08/14 11:49:25;;;;;;;4.90;4.60;;;;;;;;;;5033935;28;20886;-52
2022/08/14 11:51:54;;;;;;;4.53;4.23;;;;;;;;;;5033350;28;20493;-52
2022/08/14 11:54:21;;;;;;;4.97;4.67;;;;;;;;;;5033916;28;20434;-52
2022/08/14 11:56:50;;;;;;;5.10;4.80;;;;;;;;;;5033638;28;20446;-52
2022/08/14 11:59:18;;;;;;;5.00;4.67;;;;;;;;;;5037057;28;20500;-51
2022/08/14 12:01:45;;;;;;;5.40;5.00;;;;;;;;;;5052821;28;20538;-51
2022/08/14 12:04:12;;;;;;;9.20;5.03;;;;;;;;;;5051523;28;20520;-52
2022/08/14 12:06:51;;;;;;;5.73;5.33;;;;;;;;;;5053438;28;20905;-51
2022/08/14 12:09:33;;;;;;;5.20;4.80;;;;;;;;;;5053179;28;20411;-52
2022/08/14 12:12:00;;;;;;;5.50;5.10;;;;;;;;;;5052819;28;20735;-52
2022/08/14 12:14:26;;;;;;;6.73;6.13;;;;;;;;;;5053303;28;20459;-52
2022/08/14 12:16:59;;;;;;;6.30;5.80;;;;;;;;;;5053087;28;20421;-52
2022/08/14 12:19:26;;;;;;;5.80;5.47;;;;;;;;;;5053089;28;20416;-51
2022/08/14 12:21:52;;;;;;;6.37;5.87;;;;;;;;;;5052627;28;20405;-52
2022/08/14 12:24:26;;;;;;;5.67;5.37;;;;;;;;;;5052305;28;20390;-52
2022/08/14 12:26:55;;;;;;;5.60;5.30;;;;;;;;;;5053330;28;20416;-51
2022/08/14 12:29:21;;;;;;;6.10;5.70;;;;;;;;;;5038355;28;20430;-51
2022/08/14 12:31:57;;;;;;;5.80;5.40;;;;;;;;;;5032506;28;20399;-52
2022/08/14 12:34:30;;;;;;;5.87;5.47;;;;;;;;;;5033225;28;20394;-52
2022/08/14 12:37:04;;;;;;;6.17;5.77;;;;;;;;;;5035267;28;20418;-52
2022/08/14 12:39:31;;;;;;;5.53;5.13;;;;;;;;;;5032873;28;20401;-52
2022/08/14 12:42:08;;;;;;;6.23;5.73;;;;;;;;;;5035446;28;20429;-51
2022/08/14 12:44:36;;;;;;;6.40;5.80;;;;;;;;;;5032842;28;20444;-51
2022/08/14 12:47:03;;;;;;;6.63;6.13;;;;;;;;;;5032838;28;20426;-51
2022/08/14 12:49:29;;;;;;;7.53;6.23;;;;;;;;;;5032773;28;20402;-51
2022/08/14 12:51:57;;;;;;;6.10;5.70;;;;;;;;;;5032283;28;20406;-51
2022/08/14 12:54:23;;;;;;;6.70;6.20;;;;;;;;;;5032806;28;20402;-52
2022/08/14 12:56:49;;;;;;;5.50;5.10;;;;;;;;;;5032709;28;20429;-51
2022/08/14 12:59:16;;;;;;;5.63;5.23;;;;;;;;;;5032416;28;20410;-51
2022/08/14 13:01:44;;;;;;;5.70;5.30;;;;;;;;;;5031670;28;20476;-52
2022/08/14 13:04:12;;;;;;;6.10;5.60;;;;;;;;;;5032587;28;20398;-52
2022/08/14 13:06:38;;;;;;;5.30;5.00;;;;;;;;;;5032459;28;20414;-52
2022/08/14 13:09:05;;;;;;;5.57;5.07;;;;;;;;;;5032502;28;20996;-52
2022/08/14 13:11:43;;;;;;;7.57;5.30;;;;;;;;;;5035173;28;20456;-52
2022/08/14 13:14:15;;;;;;;5.57;5.27;;;;;;;;;;5052296;28;20405;-52
2022/08/14 13:16:43;;;;;;;5.67;5.30;;;;;;;;;;5052212;28;20428;-52
2022/08/14 13:19:11;;;;;;;5.23;4.83;;;;;;;;;;5052214;28;20923;-51
2022/08/14 13:21:38;;;;;;;6.17;5.60;;;;;;;;;;5051213;28;20464;-52
2022/08/14 13:24:04;;;;;;;6.20;5.70;;;;;;;;;;5052101;28;20412;-52
2022/08/14 13:26:31;;;;;;;5.70;5.30;;;;;;;;;;5052166;28;20831;-52
2022/08/14 13:28:59;;;;;;;5.37;4.97;;;;;;;;;;5051991;28;20401;-52
2022/08/14 13:31:26;;;;;;;5.20;4.90;;;;;;;;;;5051315;28;20437;-52
2022/08/14 13:33:52;;;;;;;4.80;4.50;;;;;;;;;;5049805;28;20467;-52
2022/08/14 13:36:19;;;;;;;4.80;4.50;;;;;;;;;;5051626;28;20490;-52
2022/08/14 13:38:48;;;;;;;4.53;4.27;;;;;;;;;;5051489;28;20408;-52
2022/08/14 13:41:16;;;;;;;4.83;4.53;;;;;;;;;;5050950;28;20449;-52
2022/08/14 13:43:42;;;;;;;6.00;5.23;;;;;;;;;;5048180;28;20952;-52
2022/08/14 13:46:08;;;;;;;4.60;4.30;;;;;;;;;;5051645;28;20412;-52
2022/08/14 13:48:34;;;;;;;4.33;4.03;;;;;;;;;;5051533;28;20480;-52
2022/08/14 13:51:03;;;;;;;4.70;4.40;;;;;;;;;;5050924;28;20405;-52
2022/08/14 13:53:29;;;;;;;4.60;4.30;;;;;;;;;;5051538;28;20397;-52
2022/08/14 13:55:56;;;;;;;4.10;3.80;;;;;;;;;;5051601;28;20398;-53
2022/08/14 13:58:24;;;;;;;3.63;3.43;;;;;;;;;;5051447;28;20429;-52
2022/08/14 14:00:54;;;;;;;3.93;3.73;;;;;;;;;;5050521;28;20976;-52
2022/08/14 14:03:21;;;;;;;3.83;3.63;;;;;;;;;;5051510;28;20772;-52
2022/08/14 14:05:49;;;;;;;4.40;4.03;;;;;;;;;;5051441;28;20488;-52
2022/08/14 14:08:16;;;;;;;3.93;3.53;;;;;;;;;;5051422;28;20425;-52
2022/08/14 14:10:42;;;;;;;4.10;3.90;;;;;;;;;;5048866;28;20433;-52
2022/08/14 14:13:09;;;;;;;4.90;4.60;;;;;;;;;;5049856;28;20921;-52
2022/08/14 14:15:36;;;;;;;5.10;4.70;;;;;;;;;;5049935;28;20405;-52
2022/08/14 14:18:03;;;;;;;5.33;4.83;;;;;;;;;;5051481;28;20940;-52
2022/08/14 14:20:29;;;;;;;5.20;4.90;;;;;;;;;;5050661;28;20456;-52
2022/08/14 14:22:55;;;;;;;4.40;4.20;;;;;;;;;;5051300;28;20393;-52
2022/08/14 14:25:21;;;;;;;4.70;4.40;;;;;;;;;;5051361;28;20815;-53
2022/08/14 14:27:48;;;;;;;5.57;5.10;;;;;;;;;;5051232;28;20182;-52
2022/08/14 14:30:15;;;;;;;4.33;4.07;;;;;;;;;;5050658;28;20417;-52
2022/08/14 14:32:43;;;;;;;4.80;4.50;;;;;;;;;;5051318;28;20401;-52
2022/08/14 14:35:14;;;;;;;4.40;4.00;;;;;;;;;;5051405;28;20487;-52
2022/08/14 14:37:42;;;;;;;4.67;4.37;;;;;;;;;;5051219;28;20423;-52
2022/08/14 14:40:09;;;;;;;4.20;4.00;;;;;;;;;;5050448;28;20457;-52
2022/08/14 14:42:37;;;;;;;4.10;3.90;;;;;;;;;;5042652;28;20429;-52
2022/08/14 14:45:14;;;;;;;7.37;5.10;;;;;;;;;;5051283;28;20409;-52
2022/08/14 14:47:53;;;;;;;4.20;4.00;;;;;;;;;;5053269;28;20962;-53
2022/08/14 14:50:22;;;;;;;4.37;4.10;;;;;;;;;;5054143;28;21207;-52
2022/08/14 14:52:49;;;;;;;4.97;4.67;;;;;;;;;;5054842;28;20404;-53
2022/08/14 14:55:16;;;;;;;5.37;5.07;;;;;;;;;;5054893;28;20409;-54
2022/08/14 14:57:42;;;;;;;5.10;4.80;;;;;;;;;;5054757;28;20516;-52
2022/08/14 15:00:13;;;;;;;5.47;5.07;;;;;;;;;;5053866;28;20452;-52
2022/08/14 15:02:41;;;;;;;5.10;4.60;;;;;;;;;;5054599;28;20408;-54